createdAt,value
2022-10-29T00:00:28.980Z,8.15
2022-10-29T00:06:01.834Z,6.57
2022-10-29T00:11:12.129Z,8.27
2022-10-29T00:16:21.711Z,7.22
2022-10-29T00:21:25.764Z,9.18
2022-10-29T00:26:30.595Z,16.67
2022-10-29T00:31:32.961Z,9.00
2022-10-29T00:36:35.264Z,8.52
2022-10-29T00:41:37.630Z,10.32
2022-10-29T00:46:44.651Z,11.68
2022-10-29T00:51:48.072Z,11.95
2022-10-29T01:01:56.085Z,10.13
2022-10-29T01:06:59.084Z,8.80
2022-10-29T01:12:04.670Z,10.05
2022-10-29T01:17:17.738Z,9.95
2022-10-29T01:22:28.910Z,13.93
2022-10-29T01:27:50.098Z,11.55
2022-10-29T01:33:05.006Z,10.85
2022-10-29T01:38:18.594Z,11.20
2022-10-29T01:43:50.103Z,9.73
2022-10-29T01:48:58.482Z,9.82
2022-10-29T01:54:01.583Z,8.45
2022-10-29T02:04:29.473Z,8.65
2022-10-29T02:09:43.100Z,8.95
2022-10-29T02:14:49.358Z,11.57
2022-10-29T02:19:52.598Z,10.38
2022-10-29T02:24:55.245Z,8.00
2022-10-29T02:30:00.984Z,12.47
2022-10-29T02:35:04.232Z,11.38
2022-10-29T02:45:14.543Z,9.23
2022-10-29T02:50:22.180Z,8.53
2022-10-29T02:55:24.685Z,8.02
2022-10-29T03:00:29.046Z,6.70
2022-10-29T03:05:31.905Z,11.20
2022-10-29T03:10:34.266Z,8.43
2022-10-29T03:15:45.541Z,8.70
2022-10-29T03:20:47.803Z,8.57
2022-10-29T03:25:55.628Z,10.13
2022-10-29T03:30:58.956Z,10.25
2022-10-29T03:36:06.498Z,11.15
2022-10-29T03:41:10.775Z,11.32
2022-10-29T03:46:13.288Z,10.80
2022-10-29T03:51:15.560Z,13.25
2022-10-29T03:56:17.987Z,19.70
2022-10-29T04:01:20.715Z,20.73
2022-10-29T04:06:24.118Z,14.60
2022-10-29T04:11:26.371Z,12.75
2022-10-29T04:16:28.501Z,12.45
2022-10-29T04:23:54.377Z,12.90
2022-10-29T04:32:19.438Z,27.95
2022-10-29T04:37:21.730Z,22.30
2022-10-29T04:42:24.222Z,12.80
2022-10-29T04:47:26.569Z,13.87
2022-10-29T04:52:28.718Z,11.43
2022-10-29T04:57:34.350Z,13.55
2022-10-29T05:02:37.212Z,7.93
2022-10-29T05:07:39.514Z,7.93
2022-10-29T05:12:42.110Z,6.03
2022-10-29T05:17:44.232Z,10.53
2022-10-29T05:22:46.698Z,7.72
2022-10-29T05:27:48.894Z,12.73
2022-10-29T05:32:51.190Z,13.25
2022-10-29T05:37:57.287Z,11.65
2022-10-29T05:42:59.717Z,10.13
2022-10-29T05:48:03.857Z,9.85
2022-10-29T05:53:09.196Z,11.15
2022-10-29T05:58:13.233Z,12.98
2022-10-29T06:03:17.948Z,12.52
2022-10-29T06:08:20.134Z,17.20
2022-10-29T06:13:22.762Z,10.93
2022-10-29T06:18:28.818Z,12.93
2022-10-29T06:23:31.036Z,14.43
2022-10-29T06:28:34.788Z,13.65
2022-10-29T06:33:37.292Z,15.38
2022-10-29T06:38:39.904Z,16.27
2022-10-29T06:43:42.582Z,14.40
2022-10-29T06:48:44.912Z,14.23
2022-10-29T06:53:47.133Z,17.90
2022-10-29T06:58:49.258Z,13.85
2022-10-29T07:03:54.652Z,18.42
2022-10-29T07:08:56.860Z,14.43
2022-10-29T07:14:00.291Z,18.45
2022-10-29T07:24:05.752Z,19.17
2022-10-29T07:29:08.367Z,13.27
2022-10-29T07:34:10.842Z,15.80
2022-10-29T07:39:13.818Z,13.30
2022-10-29T07:44:16.017Z,16.88
2022-10-29T07:49:18.182Z,20.70
2022-10-29T07:54:20.713Z,14.45
2022-10-29T07:59:23.164Z,13.10
2022-10-29T08:04:29.773Z,20.77
2022-10-29T08:09:50.073Z,12.20
2022-10-29T08:14:52.229Z,17.90
2022-10-29T08:19:54.476Z,16.92
2022-10-29T08:24:56.673Z,17.50
2022-10-29T08:30:00.181Z,16.90
2022-10-29T08:41:21.992Z,16.90
2022-10-29T08:46:41.577Z,15.57
2022-10-29T08:51:48.666Z,14.93
2022-10-29T08:56:54.294Z,18.63
2022-10-29T09:01:57.167Z,13.07
2022-10-29T09:07:05.495Z,19.00
2022-10-29T09:12:19.062Z,16.77
2022-10-29T09:17:49.961Z,16.70
2022-10-29T09:23:14.679Z,14.73
2022-10-29T09:28:28.954Z,15.85
2022-10-29T09:33:32.310Z,12.68
2022-10-29T09:38:44.399Z,15.20
2022-10-29T09:43:55.420Z,16.73
2022-10-29T09:49:36.217Z,19.85
2022-10-29T09:54:38.394Z,13.18
2022-10-29T09:59:59.568Z,15.65
2022-10-29T10:05:27.321Z,14.85
2022-10-29T10:10:29.621Z,10.48
2022-10-29T10:15:35.272Z,11.90
2022-10-29T10:20:41.604Z,15.68
2022-10-29T10:25:44.212Z,16.33
2022-10-29T10:31:05.739Z,14.60
2022-10-29T10:36:27.443Z,11.98
2022-10-29T10:41:33.703Z,11.32
2022-10-29T10:46:43.968Z,11.93
2022-10-29T10:51:51.183Z,33.58
2022-10-29T10:57:03.748Z,24.48
2022-10-29T11:02:14.524Z,15.80
2022-10-29T11:07:18.099Z,11.52
2022-10-29T11:12:31.762Z,11.82
2022-10-29T11:17:58.946Z,20.48
2022-10-29T11:23:20.234Z,10.32
2022-10-29T11:28:48.766Z,10.35
2022-10-29T11:34:21.073Z,10.48
2022-10-29T11:39:28.751Z,8.07
2022-10-29T11:44:37.109Z,15.48
2022-10-29T11:50:05.152Z,10.95
2022-10-29T11:55:20.513Z,7.38
2022-10-29T12:00:24.610Z,9.75
2022-10-29T12:05:42.058Z,8.77
2022-10-29T12:11:05.105Z,9.18
2022-10-29T12:21:37.862Z,9.63
2022-10-29T12:26:49.286Z,12.35
2022-10-29T12:32:07.382Z,14.35
2022-10-29T12:37:18.236Z,14.95
2022-10-29T12:42:28.099Z,12.98
2022-10-29T12:47:46.518Z,11.98
2022-10-29T12:53:12.277Z,8.27
2022-10-29T12:58:42.804Z,9.57
2022-10-29T13:04:00.311Z,10.52
2022-10-29T13:09:14.876Z,12.07
2022-10-29T13:14:43.428Z,9.10
2022-10-29T13:20:14.712Z,9.82
2022-10-29T13:25:28.949Z,9.38
2022-10-29T13:30:32.754Z,10.50
2022-10-29T13:35:42.437Z,12.55
2022-10-29T13:41:02.505Z,11.23
2022-10-29T13:46:13.901Z,14.68
2022-10-29T13:51:40.928Z,12.68
2022-10-29T13:56:49.495Z,15.65
2022-10-29T14:01:58.047Z,21.90
2022-10-29T14:07:00.919Z,18.92
2022-10-29T14:12:05.880Z,46.05
2022-10-29T14:17:13.561Z,17.75
2022-10-29T14:22:38.687Z,14.52
2022-10-29T14:27:41.379Z,20.10
2022-10-29T14:32:54.546Z,17.13
2022-10-29T14:43:02.482Z,15.82
2022-10-29T14:48:09.935Z,13.38
2022-10-29T14:53:38.797Z,13.45
2022-10-29T14:58:41.523Z,15.90
2022-10-29T15:03:44.258Z,14.32
2022-10-29T15:08:55.084Z,13.07
2022-10-29T15:19:31.432Z,14.70
2022-10-29T15:24:33.719Z,16.63
2022-10-29T15:29:42.908Z,19.67
2022-10-29T15:34:54.334Z,18.75
2022-10-29T15:39:59.438Z,32.13
2022-10-29T15:45:09.053Z,37.40
2022-10-29T15:50:14.280Z,56.22
2022-10-29T15:55:40.768Z,59.10
2022-10-29T16:00:43.333Z,67.93
2022-10-29T16:05:47.875Z,59.15
2022-10-29T16:10:50.822Z,56.83
2022-10-29T16:15:53.374Z,56.15
2022-10-29T16:21:01.171Z,49.83
2022-10-29T16:26:03.563Z,48.42
2022-10-29T16:31:20.611Z,57.83
2022-10-29T16:36:23.477Z,52.03
2022-10-29T16:41:25.756Z,56.35
2022-10-29T16:46:28.045Z,66.90
2022-10-29T16:51:30.335Z,72.45
2022-10-29T16:56:32.788Z,89.77
2022-10-29T17:01:35.041Z,95.32
2022-10-29T17:06:37.281Z,136.73
2022-10-29T17:11:40.255Z,129.48
2022-10-29T17:16:42.743Z,126.47
2022-10-29T17:21:45.042Z,140.82
2022-10-29T17:31:50.502Z,153.48
2022-10-29T17:36:53.580Z,196.03
2022-10-29T17:41:55.820Z,191.40
2022-10-29T17:46:58.260Z,177.80
2022-10-29T17:57:04.929Z,136.82
2022-10-29T18:02:10.336Z,123.32
2022-10-29T18:07:13.065Z,132.80
2022-10-29T18:12:15.254Z,145.00
2022-10-29T18:17:17.442Z,157.43
2022-10-29T18:22:19.728Z,162.52
2022-10-29T18:27:22.145Z,141.15
2022-10-29T18:32:24.333Z,112.40
2022-10-29T18:37:26.702Z,69.40
2022-10-29T18:42:30.492Z,44.10
2022-10-29T18:47:36.555Z,45.00
2022-10-29T18:52:38.913Z,45.53
2022-10-29T18:57:41.095Z,57.92
2022-10-29T19:02:43.503Z,56.38
2022-10-29T19:07:55.137Z,72.97
2022-10-29T19:18:23.812Z,66.07
2022-10-29T19:23:27.443Z,93.78
2022-10-29T19:28:30.524Z,210.68
2022-10-29T19:33:33.055Z,172.07
2022-10-29T19:38:35.726Z,141.87
2022-10-29T19:43:38.435Z,139.30
2022-10-29T19:48:41.642Z,122.50
2022-10-29T19:53:43.926Z,104.10
2022-10-29T19:58:47.464Z,85.13
2022-10-29T20:03:50.096Z,77.95
2022-10-29T20:08:53.346Z,68.95
2022-10-29T20:13:55.576Z,53.83
2022-10-29T20:18:58.706Z,29.90
2022-10-29T20:24:01.023Z,28.52
2022-10-29T20:29:04.682Z,25.23
2022-10-29T20:39:17.234Z,21.57
2022-10-29T20:44:19.465Z,26.48
2022-10-29T20:49:21.637Z,36.65
2022-10-29T20:54:23.928Z,46.95
2022-10-29T20:59:26.325Z,42.45
2022-10-29T21:04:28.577Z,42.20
2022-10-29T21:09:31.334Z,45.47
2022-10-29T21:14:33.511Z,37.80
2022-10-29T21:19:35.791Z,41.80
2022-10-29T21:24:39.287Z,38.45
2022-10-29T21:29:52.451Z,36.45
2022-10-29T21:34:54.654Z,40.03
2022-10-29T21:40:26.063Z,33.35
2022-10-29T21:45:28.211Z,33.42
2022-10-29T21:50:30.383Z,36.17
2022-10-29T21:55:33.054Z,35.63
2022-10-29T22:00:35.337Z,38.77
2022-10-29T22:05:38.867Z,49.40
2022-10-29T22:10:41.379Z,50.95
2022-10-29T22:15:45.728Z,43.57
2022-10-29T22:20:47.993Z,46.55
2022-10-29T22:25:51.549Z,50.10
2022-10-29T22:30:58.798Z,48.67
2022-10-29T22:36:07.436Z,47.75
2022-10-29T22:41:15.631Z,41.22
2022-10-29T22:46:18.552Z,44.78
2022-10-29T22:51:25.556Z,37.30
2022-10-29T22:56:38.652Z,34.75
2022-10-29T23:01:44.267Z,34.13
2022-10-29T23:06:48.168Z,27.35
2022-10-29T23:11:50.813Z,27.83
2022-10-29T23:16:52.974Z,30.35
2022-10-29T23:21:55.325Z,28.65
2022-10-29T23:26:58.660Z,26.30
2022-10-29T23:32:10.413Z,34.70
2022-10-29T23:37:12.567Z,42.95
2022-10-29T23:42:15.759Z,42.13
2022-10-29T23:47:20.014Z,42.80
2022-10-29T23:52:23.394Z,49.92
2022-10-29T23:57:25.540Z,52.75
